sensor_id;sensor_type;location;lat;lon;timestamp;P1;durP1;ratioP1;P2;durP2;ratioP2
1837;SDS011;918;50.796;6.772;2024-01-07T00:01:54;36.90;;;26.40;;
1837;SDS011;918;50.796;6.772;2024-01-07T00:04:20;43.30;;;25.20;;
1837;SDS011;918;50.796;6.772;2024-01-07T00:06:46;41.40;;;27.90;;
1837;SDS011;918;50.796;6.772;2024-01-07T00:09:11;41.93;;;28.90;;
1837;SDS011;918;50.796;6.772;2024-01-07T00:11:37;42.20;;;28.13;;
1837;SDS011;918;50.796;6.772;2024-01-07T00:14:03;39.40;;;26.60;;
1837;SDS011;918;50.796;6.772;2024-01-07T00:16:28;37.00;;;27.27;;
1837;SDS011;918;50.796;6.772;2024-01-07T00:18:53;38.50;;;25.50;;
1837;SDS011;918;50.796;6.772;2024-01-07T00:21:18;40.20;;;26.83;;
1837;SDS011;918;50.796;6.772;2024-01-07T00:23:44;43.53;;;25.70;;
1837;SDS011;918;50.796;6.772;2024-01-07T00:26:09;46.40;;;28.23;;
1837;SDS011;918;50.796;6.772;2024-01-07T00:28:34;40.83;;;28.30;;
1837;SDS011;918;50.796;6.772;2024-01-07T00:31:00;40.57;;;26.80;;
1837;SDS011;918;50.796;6.772;2024-01-07T00:33:25;42.37;;;28.00;;
1837;SDS011;918;50.796;6.772;2024-01-07T00:35:50;46.33;;;28.63;;
1837;SDS011;918;50.796;6.772;2024-01-07T00:38:15;47.07;;;27.67;;
1837;SDS011;918;50.796;6.772;2024-01-07T00:40:41;44.23;;;28.80;;
1837;SDS011;918;50.796;6.772;2024-01-07T00:43:06;41.60;;;26.00;;
1837;SDS011;918;50.796;6.772;2024-01-07T00:45:31;51.13;;;29.30;;
1837;SDS011;918;50.796;6.772;2024-01-07T00:47:56;51.47;;;28.97;;
1837;SDS011;918;50.796;6.772;2024-01-07T00:50:22;45.50;;;28.47;;
1837;SDS011;918;50.796;6.772;2024-01-07T00:52:47;48.57;;;29.90;;
1837;SDS011;918;50.796;6.772;2024-01-07T00:55:12;49.83;;;28.37;;
1837;SDS011;918;50.796;6.772;2024-01-07T00:57:37;41.70;;;28.50;;
1837;SDS011;918;50.796;6.772;2024-01-07T01:00:06;44.53;;;27.83;;
1837;SDS011;918;50.796;6.772;2024-01-07T01:02:32;45.37;;;29.07;;
1837;SDS011;918;50.796;6.772;2024-01-07T01:04:57;43.47;;;29.30;;
1837;SDS011;918;50.796;6.772;2024-01-07T01:07:22;39.87;;;26.13;;
1837;SDS011;918;50.796;6.772;2024-01-07T01:09:47;42.73;;;24.87;;
1837;SDS011;918;50.796;6.772;2024-01-07T01:12:13;36.60;;;23.87;;
1837;SDS011;918;50.796;6.772;2024-01-07T01:14:38;36.70;;;25.10;;
1837;SDS011;918;50.796;6.772;2024-01-07T01:17:03;31.93;;;21.23;;
1837;SDS011;918;50.796;6.772;2024-01-07T01:19:28;31.97;;;22.27;;
1837;SDS011;918;50.796;6.772;2024-01-07T01:21:54;33.10;;;22.40;;
1837;SDS011;918;50.796;6.772;2024-01-07T01:24:19;31.37;;;23.00;;
1837;SDS011;918;50.796;6.772;2024-01-07T01:26:44;37.17;;;24.33;;
1837;SDS011;918;50.796;6.772;2024-01-07T01:29:09;37.07;;;24.87;;
1837;SDS011;918;50.796;6.772;2024-01-07T01:31:35;35.83;;;23.43;;
1837;SDS011;918;50.796;6.772;2024-01-07T01:34:00;36.17;;;24.17;;
1837;SDS011;918;50.796;6.772;2024-01-07T01:36:25;32.03;;;22.10;;
1837;SDS011;918;50.796;6.772;2024-01-07T01:38:51;37.30;;;25.33;;
1837;SDS011;918;50.796;6.772;2024-01-07T01:41:16;33.93;;;23.30;;
1837;SDS011;918;50.796;6.772;2024-01-07T01:43:42;32.33;;;22.97;;
1837;SDS011;918;50.796;6.772;2024-01-07T01:46:07;39.63;;;24.97;;
1837;SDS011;918;50.796;6.772;2024-01-07T01:48:32;32.77;;;22.67;;
1837;SDS011;918;50.796;6.772;2024-01-07T01:50:58;29.40;;;21.00;;
1837;SDS011;918;50.796;6.772;2024-01-07T01:53:24;33.73;;;22.70;;
1837;SDS011;918;50.796;6.772;2024-01-07T01:55:51;29.23;;;21.47;;
1837;SDS011;918;50.796;6.772;2024-01-07T01:58:16;35.40;;;22.00;;
1837;SDS011;918;50.796;6.772;2024-01-07T02:00:43;36.83;;;23.60;;
1837;SDS011;918;50.796;6.772;2024-01-07T02:03:08;30.40;;;21.70;;
1837;SDS011;918;50.796;6.772;2024-01-07T02:05:33;29.23;;;21.90;;
1837;SDS011;918;50.796;6.772;2024-01-07T02:07:59;34.47;;;23.00;;
1837;SDS011;918;50.796;6.772;2024-01-07T02:10:24;35.10;;;22.80;;
1837;SDS011;918;50.796;6.772;2024-01-07T02:12:49;37.83;;;21.37;;
1837;SDS011;918;50.796;6.772;2024-01-07T02:15:15;28.30;;;21.27;;
1837;SDS011;918;50.796;6.772;2024-01-07T02:17:40;33.33;;;22.33;;
1837;SDS011;918;50.796;6.772;2024-01-07T02:20:06;30.90;;;20.83;;
1837;SDS011;918;50.796;6.772;2024-01-07T02:22:31;30.37;;;21.30;;
1837;SDS011;918;50.796;6.772;2024-01-07T02:24:56;36.03;;;24.23;;
1837;SDS011;918;50.796;6.772;2024-01-07T02:27:22;32.03;;;21.87;;
1837;SDS011;918;50.796;6.772;2024-01-07T02:29:47;33.07;;;20.57;;
1837;SDS011;918;50.796;6.772;2024-01-07T02:32:12;28.60;;;19.97;;
1837;SDS011;918;50.796;6.772;2024-01-07T02:34:37;30.87;;;22.37;;
1837;SDS011;918;50.796;6.772;2024-01-07T02:37:02;35.10;;;23.20;;
1837;SDS011;918;50.796;6.772;2024-01-07T02:39:28;29.60;;;21.73;;
1837;SDS011;918;50.796;6.772;2024-01-07T02:41:53;28.50;;;18.50;;
1837;SDS011;918;50.796;6.772;2024-01-07T02:44:18;29.63;;;20.37;;
1837;SDS011;918;50.796;6.772;2024-01-07T02:46:44;31.43;;;21.70;;
1837;SDS011;918;50.796;6.772;2024-01-07T02:49:11;30.63;;;21.97;;
1837;SDS011;918;50.796;6.772;2024-01-07T02:51:36;26.57;;;19.07;;
1837;SDS011;918;50.796;6.772;2024-01-07T02:54:01;29.40;;;20.23;;
1837;SDS011;918;50.796;6.772;2024-01-07T02:56:27;27.63;;;18.30;;
1837;SDS011;918;50.796;6.772;2024-01-07T02:58:52;28.20;;;18.90;;
1837;SDS011;918;50.796;6.772;2024-01-07T03:01:17;31.03;;;20.30;;
1837;SDS011;918;50.796;6.772;2024-01-07T03:03:42;28.83;;;20.70;;
1837;SDS011;918;50.796;6.772;2024-01-07T03:06:08;25.40;;;18.93;;
1837;SDS011;918;50.796;6.772;2024-01-07T03:08:33;25.50;;;18.33;;
1837;SDS011;918;50.796;6.772;2024-01-07T03:11:03;27.63;;;19.13;;
1837;SDS011;918;50.796;6.772;2024-01-07T03:13:29;22.83;;;16.43;;
1837;SDS011;918;50.796;6.772;2024-01-07T03:15:54;21.60;;;15.90;;
1837;SDS011;918;50.796;6.772;2024-01-07T03:18:20;21.83;;;17.27;;
1837;SDS011;918;50.796;6.772;2024-01-07T03:20:45;17.77;;;14.60;;
1837;SDS011;918;50.796;6.772;2024-01-07T03:23:10;20.10;;;15.80;;
1837;SDS011;918;50.796;6.772;2024-01-07T03:25:35;19.33;;;15.10;;
1837;SDS011;918;50.796;6.772;2024-01-07T03:28:01;18.90;;;15.80;;
1837;SDS011;918;50.796;6.772;2024-01-07T03:30:26;21.23;;;15.10;;
1837;SDS011;918;50.796;6.772;2024-01-07T03:32:51;18.33;;;14.43;;
1837;SDS011;918;50.796;6.772;2024-01-07T03:35:16;19.07;;;16.50;;
1837;SDS011;918;50.796;6.772;2024-01-07T03:37:42;17.70;;;14.27;;
1837;SDS011;918;50.796;6.772;2024-01-07T03:40:10;17.27;;;14.60;;
1837;SDS011;918;50.796;6.772;2024-01-07T03:42:36;18.43;;;15.37;;
1837;SDS011;918;50.796;6.772;2024-01-07T03:45:02;18.80;;;15.77;;
1837;SDS011;918;50.796;6.772;2024-01-07T03:47:27;17.67;;;14.83;;
1837;SDS011;918;50.796;6.772;2024-01-07T03:49:52;16.33;;;13.47;;
1837;SDS011;918;50.796;6.772;2024-01-07T03:52:18;18.13;;;14.93;;
1837;SDS011;918;50.796;6.772;2024-01-07T03:54:43;19.90;;;14.33;;
1837;SDS011;918;50.796;6.772;2024-01-07T03:57:08;18.70;;;13.87;;
1837;SDS011;918;50.796;6.772;2024-01-07T03:59:33;20.30;;;15.60;;
1837;SDS011;918;50.796;6.772;2024-01-07T04:01:59;14.90;;;13.30;;
1837;SDS011;918;50.796;6.772;2024-01-07T04:04:24;16.07;;;14.00;;
1837;SDS011;918;50.796;6.772;2024-01-07T04:06:49;19.40;;;15.30;;
1837;SDS011;918;50.796;6.772;2024-01-07T04:09:14;19.00;;;15.73;;
1837;SDS011;918;50.796;6.772;2024-01-07T04:11:40;20.10;;;15.30;;
1837;SDS011;918;50.796;6.772;2024-01-07T04:14:06;17.17;;;14.10;;
1837;SDS011;918;50.796;6.772;2024-01-07T04:16:32;18.73;;;14.53;;
1837;SDS011;918;50.796;6.772;2024-01-07T04:18:57;18.40;;;14.70;;
1837;SDS011;918;50.796;6.772;2024-01-07T04:21:22;16.67;;;13.47;;
1837;SDS011;918;50.796;6.772;2024-01-07T04:23:47;16.87;;;14.37;;
1837;SDS011;918;50.796;6.772;2024-01-07T04:26:13;16.40;;;14.47;;
1837;SDS011;918;50.796;6.772;2024-01-07T04:28:40;17.70;;;13.73;;
1837;SDS011;918;50.796;6.772;2024-01-07T04:31:06;19.23;;;14.80;;
1837;SDS011;918;50.796;6.772;2024-01-07T04:33:31;16.90;;;15.10;;
1837;SDS011;918;50.796;6.772;2024-01-07T04:35:56;15.17;;;13.13;;
1837;SDS011;918;50.796;6.772;2024-01-07T04:38:23;18.73;;;15.27;;
1837;SDS011;918;50.796;6.772;2024-01-07T04:40:49;20.10;;;15.40;;
1837;SDS011;918;50.796;6.772;2024-01-07T04:43:15;17.33;;;15.00;;
1837;SDS011;918;50.796;6.772;2024-01-07T04:45:40;20.87;;;16.07;;
1837;SDS011;918;50.796;6.772;2024-01-07T04:48:05;19.30;;;16.13;;
1837;SDS011;918;50.796;6.772;2024-01-07T04:50:31;17.13;;;15.23;;
1837;SDS011;918;50.796;6.772;2024-01-07T04:52:56;21.73;;;16.10;;
1837;SDS011;918;50.796;6.772;2024-01-07T04:55:21;18.37;;;16.20;;
1837;SDS011;918;50.796;6.772;2024-01-07T04:57:46;20.00;;;15.10;;
1837;SDS011;918;50.796;6.772;2024-01-07T05:00:12;22.40;;;15.70;;
1837;SDS011;918;50.796;6.772;2024-01-07T05:02:37;18.60;;;16.60;;
1837;SDS011;918;50.796;6.772;2024-01-07T05:05:02;20.30;;;16.23;;
1837;SDS011;918;50.796;6.772;2024-01-07T05:07:28;21.33;;;16.97;;
1837;SDS011;918;50.796;6.772;2024-01-07T05:09:53;21.50;;;19.00;;
1837;SDS011;918;50.796;6.772;2024-01-07T05:12:19;19.97;;;17.47;;
1837;SDS011;918;50.796;6.772;2024-01-07T05:14:44;24.70;;;18.80;;
1837;SDS011;918;50.796;6.772;2024-01-07T05:17:11;21.83;;;18.10;;
1837;SDS011;918;50.796;6.772;2024-01-07T05:19:36;24.37;;;19.00;;
1837;SDS011;918;50.796;6.772;2024-01-07T05:22:05;25.17;;;18.80;;
1837;SDS011;918;50.796;6.772;2024-01-07T05:24:30;25.73;;;19.03;;
1837;SDS011;918;50.796;6.772;2024-01-07T05:26:55;24.47;;;18.43;;
1837;SDS011;918;50.796;6.772;2024-01-07T05:29:21;26.13;;;19.30;;
1837;SDS011;918;50.796;6.772;2024-01-07T05:31:46;22.93;;;18.03;;
1837;SDS011;918;50.796;6.772;2024-01-07T05:34:11;23.63;;;18.47;;
1837;SDS011;918;50.796;6.772;2024-01-07T05:36:36;25.40;;;19.27;;
1837;SDS011;918;50.796;6.772;2024-01-07T05:39:02;23.07;;;18.10;;
1837;SDS011;918;50.796;6.772;2024-01-07T05:41:28;22.13;;;17.83;;
1837;SDS011;918;50.796;6.772;2024-01-07T05:43:53;24.90;;;17.60;;
1837;SDS011;918;50.796;6.772;2024-01-07T05:46:19;21.00;;;17.40;;
1837;SDS011;918;50.796;6.772;2024-01-07T05:48:44;22.47;;;16.80;;
1837;SDS011;918;50.796;6.772;2024-01-07T05:51:10;20.37;;;16.50;;
1837;SDS011;918;50.796;6.772;2024-01-07T05:53:36;22.83;;;17.60;;
1837;SDS011;918;50.796;6.772;2024-01-07T05:56:01;22.23;;;16.80;;
1837;SDS011;918;50.796;6.772;2024-01-07T05:58:27;22.63;;;18.07;;
1837;SDS011;918;50.796;6.772;2024-01-07T06:00:53;21.27;;;17.43;;
1837;SDS011;918;50.796;6.772;2024-01-07T06:03:18;19.00;;;16.53;;
1837;SDS011;918;50.796;6.772;2024-01-07T06:05:44;20.17;;;16.90;;
1837;SDS011;918;50.796;6.772;2024-01-07T06:08:09;19.73;;;17.17;;
1837;SDS011;918;50.796;6.772;2024-01-07T06:10:35;20.77;;;17.10;;
1837;SDS011;918;50.796;6.772;2024-01-07T06:13:00;21.57;;;18.37;;
1837;SDS011;918;50.796;6.772;2024-01-07T06:15:25;20.47;;;18.20;;
1837;SDS011;918;50.796;6.772;2024-01-07T06:17:51;22.10;;;18.20;;
1837;SDS011;918;50.796;6.772;2024-01-07T06:20:16;19.33;;;16.73;;
1837;SDS011;918;50.796;6.772;2024-01-07T06:22:42;25.40;;;18.37;;
1837;SDS011;918;50.796;6.772;2024-01-07T06:25:07;22.63;;;18.97;;
1837;SDS011;918;50.796;6.772;2024-01-07T06:27:32;24.80;;;19.93;;
1837;SDS011;918;50.796;6.772;2024-01-07T06:29:58;21.70;;;17.60;;
1837;SDS011;918;50.796;6.772;2024-01-07T06:32:23;20.43;;;18.23;;
1837;SDS011;918;50.796;6.772;2024-01-07T06:34:50;20.87;;;17.63;;
1837;SDS011;918;50.796;6.772;2024-01-07T06:37:15;20.60;;;17.97;;
1837;SDS011;918;50.796;6.772;2024-01-07T06:39:40;23.03;;;17.37;;
1837;SDS011;918;50.796;6.772;2024-01-07T06:42:06;21.60;;;18.40;;
1837;SDS011;918;50.796;6.772;2024-01-07T06:44:31;20.50;;;18.30;;
1837;SDS011;918;50.796;6.772;2024-01-07T06:46:56;19.57;;;17.47;;
1837;SDS011;918;50.796;6.772;2024-01-07T06:49:21;18.00;;;15.97;;
1837;SDS011;918;50.796;6.772;2024-01-07T06:51:47;20.97;;;18.60;;
1837;SDS011;918;50.796;6.772;2024-01-07T06:54:12;22.17;;;16.97;;
1837;SDS011;918;50.796;6.772;2024-01-07T06:56:37;20.10;;;17.03;;
1837;SDS011;918;50.796;6.772;2024-01-07T06:59:02;25.70;;;18.90;;
1837;SDS011;918;50.796;6.772;2024-01-07T07:01:28;23.27;;;19.17;;
1837;SDS011;918;50.796;6.772;2024-01-07T07:03:53;23.37;;;20.50;;
1837;SDS011;918;50.796;6.772;2024-01-07T07:06:18;29.20;;;20.63;;
1837;SDS011;918;50.796;6.772;2024-01-07T07:08:43;21.50;;;19.20;;
1837;SDS011;918;50.796;6.772;2024-01-07T07:11:09;23.97;;;19.67;;
1837;SDS011;918;50.796;6.772;2024-01-07T07:13:34;24.17;;;19.47;;
1837;SDS011;918;50.796;6.772;2024-01-07T07:15:59;21.87;;;17.90;;
1837;SDS011;918;50.796;6.772;2024-01-07T07:18:25;21.40;;;19.03;;
1837;SDS011;918;50.796;6.772;2024-01-07T07:20:50;22.27;;;19.90;;
1837;SDS011;918;50.796;6.772;2024-01-07T07:23:16;23.40;;;18.67;;
1837;SDS011;918;50.796;6.772;2024-01-07T07:25:41;20.73;;;17.50;;
1837;SDS011;918;50.796;6.772;2024-01-07T07:28:06;21.40;;;17.97;;
1837;SDS011;918;50.796;6.772;2024-01-07T07:30:32;23.27;;;19.33;;
1837;SDS011;918;50.796;6.772;2024-01-07T07:32:57;22.73;;;19.57;;
1837;SDS011;918;50.796;6.772;2024-01-07T07:35:22;20.63;;;17.57;;
1837;SDS011;918;50.796;6.772;2024-01-07T07:37:47;23.93;;;19.20;;
1837;SDS011;918;50.796;6.772;2024-01-07T07:40:13;24.70;;;20.80;;
1837;SDS011;918;50.796;6.772;2024-01-07T07:42:38;23.13;;;19.27;;
1837;SDS011;918;50.796;6.772;2024-01-07T07:45:04;24.10;;;19.87;;
1837;SDS011;918;50.796;6.772;2024-01-07T07:47:30;23.90;;;19.37;;
1837;SDS011;918;50.796;6.772;2024-01-07T07:49:55;23.20;;;19.03;;
1837;SDS011;918;50.796;6.772;2024-01-07T07:52:21;24.47;;;19.03;;
1837;SDS011;918;50.796;6.772;2024-01-07T07:54:50;24.00;;;19.70;;
1837;SDS011;918;50.796;6.772;2024-01-07T07:57:15;21.10;;;18.90;;
1837;SDS011;918;50.796;6.772;2024-01-07T07:59:41;23.43;;;19.97;;
1837;SDS011;918;50.796;6.772;2024-01-07T08:02:06;21.47;;;19.20;;
1837;SDS011;918;50.796;6.772;2024-01-07T08:04:31;24.20;;;18.90;;
1837;SDS011;918;50.796;6.772;2024-01-07T08:06:56;22.13;;;18.67;;
1837;SDS011;918;50.796;6.772;2024-01-07T08:09:22;22.80;;;19.00;;
1837;SDS011;918;50.796;6.772;2024-01-07T08:11:49;23.73;;;19.20;;
1837;SDS011;918;50.796;6.772;2024-01-07T08:14:15;21.70;;;19.37;;
1837;SDS011;918;50.796;6.772;2024-01-07T08:16:40;22.63;;;20.30;;
1837;SDS011;918;50.796;6.772;2024-01-07T08:19:05;21.53;;;18.63;;
1837;SDS011;918;50.796;6.772;2024-01-07T08:21:30;22.23;;;18.67;;
1837;SDS011;918;50.796;6.772;2024-01-07T08:23:56;22.17;;;19.23;;
1837;SDS011;918;50.796;6.772;2024-01-07T08:26:22;21.03;;;17.73;;
1837;SDS011;918;50.796;6.772;2024-01-07T08:28:48;22.17;;;17.67;;
1837;SDS011;918;50.796;6.772;2024-01-07T08:31:13;22.73;;;18.90;;
1837;SDS011;918;50.796;6.772;2024-01-07T08:33:38;20.23;;;17.37;;
1837;SDS011;918;50.796;6.772;2024-01-07T08:36:04;22.13;;;18.67;;
1837;SDS011;918;50.796;6.772;2024-01-07T08:38:30;19.67;;;17.57;;
1837;SDS011;918;50.796;6.772;2024-01-07T08:40:55;20.97;;;18.60;;
1837;SDS011;918;50.796;6.772;2024-01-07T08:43:21;20.03;;;17.47;;
1837;SDS011;918;50.796;6.772;2024-01-07T08:45:46;18.50;;;16.10;;
1837;SDS011;918;50.796;6.772;2024-01-07T08:48:11;18.13;;;16.17;;
1837;SDS011;918;50.796;6.772;2024-01-07T08:50:37;20.57;;;16.80;;
1837;SDS011;918;50.796;6.772;2024-01-07T08:53:02;19.23;;;17.20;;
1837;SDS011;918;50.796;6.772;2024-01-07T08:55:28;19.63;;;17.03;;
1837;SDS011;918;50.796;6.772;2024-01-07T08:57:53;22.50;;;18.07;;
1837;SDS011;918;50.796;6.772;2024-01-07T09:00:18;23.70;;;18.80;;
1837;SDS011;918;50.796;6.772;2024-01-07T09:02:44;22.40;;;17.57;;
1837;SDS011;918;50.796;6.772;2024-01-07T09:05:09;19.40;;;16.97;;
1837;SDS011;918;50.796;6.772;2024-01-07T09:07:36;22.23;;;17.60;;
1837;SDS011;918;50.796;6.772;2024-01-07T09:10:02;19.03;;;17.13;;
1837;SDS011;918;50.796;6.772;2024-01-07T09:12:28;21.83;;;16.90;;
1837;SDS011;918;50.796;6.772;2024-01-07T09:14:53;20.53;;;15.60;;
1837;SDS011;918;50.796;6.772;2024-01-07T09:17:18;18.40;;;16.47;;
1837;SDS011;918;50.796;6.772;2024-01-07T09:19:44;27.80;;;21.13;;
1837;SDS011;918;50.796;6.772;2024-01-07T09:22:10;20.83;;;17.37;;
1837;SDS011;918;50.796;6.772;2024-01-07T09:24:36;26.80;;;20.00;;
1837;SDS011;918;50.796;6.772;2024-01-07T09:27:02;20.77;;;18.63;;
1837;SDS011;918;50.796;6.772;2024-01-07T09:29:27;20.50;;;18.40;;
1837;SDS011;918;50.796;6.772;2024-01-07T09:31:53;19.67;;;17.53;;
1837;SDS011;918;50.796;6.772;2024-01-07T09:34:18;19.43;;;17.43;;
1837;SDS011;918;50.796;6.772;2024-01-07T09:36:43;18.40;;;16.40;;
1837;SDS011;918;50.796;6.772;2024-01-07T09:39:08;20.17;;;17.13;;
1837;SDS011;918;50.796;6.772;2024-01-07T09:41:34;20.43;;;17.30;;
1837;SDS011;918;50.796;6.772;2024-01-07T09:43:59;23.90;;;18.33;;
1837;SDS011;918;50.796;6.772;2024-01-07T09:46:25;21.50;;;17.53;;
1837;SDS011;918;50.796;6.772;2024-01-07T09:48:50;18.13;;;16.33;;
1837;SDS011;918;50.796;6.772;2024-01-07T09:51:16;22.13;;;16.90;;
1837;SDS011;918;50.796;6.772;2024-01-07T09:53:43;17.70;;;15.77;;
1837;SDS011;918;50.796;6.772;2024-01-07T09:58:42;21.00;;;18.77;;
1837;SDS011;918;50.796;6.772;2024-01-07T10:01:08;25.57;;;20.63;;
1837;SDS011;918;50.796;6.772;2024-01-07T10:03:34;23.43;;;19.40;;
1837;SDS011;918;50.796;6.772;2024-01-07T10:06:00;22.40;;;20.03;;
1837;SDS011;918;50.796;6.772;2024-01-07T10:08:25;24.60;;;21.90;;
1837;SDS011;918;50.796;6.772;2024-01-07T10:10:50;22.23;;;19.90;;
1837;SDS011;918;50.796;6.772;2024-01-07T10:13:15;20.43;;;17.93;;
1837;SDS011;918;50.796;6.772;2024-01-07T10:15:41;19.40;;;17.30;;
1837;SDS011;918;50.796;6.772;2024-01-07T10:18:06;21.37;;;16.63;;
1837;SDS011;918;50.796;6.772;2024-01-07T10:20:32;21.53;;;19.27;;
1837;SDS011;918;50.796;6.772;2024-01-07T10:22:59;25.50;;;18.30;;
1837;SDS011;918;50.796;6.772;2024-01-07T10:25:24;18.70;;;16.80;;
1837;SDS011;918;50.796;6.772;2024-01-07T10:27:49;18.97;;;17.10;;
1837;SDS011;918;50.796;6.772;2024-01-07T10:30:17;23.17;;;18.63;;
1837;SDS011;918;50.796;6.772;2024-01-07T10:32:43;20.60;;;17.20;;
1837;SDS011;918;50.796;6.772;2024-01-07T10:35:09;22.73;;;18.03;;
1837;SDS011;918;50.796;6.772;2024-01-07T10:37:39;20.07;;;17.23;;
1837;SDS011;918;50.796;6.772;2024-01-07T10:40:04;18.83;;;16.73;;
1837;SDS011;918;50.796;6.772;2024-01-07T10:42:32;15.73;;;14.10;;
1837;SDS011;918;50.796;6.772;2024-01-07T10:45:01;17.90;;;16.10;;
1837;SDS011;918;50.796;6.772;2024-01-07T10:47:28;16.80;;;15.00;;
1837;SDS011;918;50.796;6.772;2024-01-07T10:49:54;15.60;;;14.10;;
1837;SDS011;918;50.796;6.772;2024-01-07T10:52:26;17.20;;;15.07;;
1837;SDS011;918;50.796;6.772;2024-01-07T10:54:52;15.20;;;13.10;;
1837;SDS011;918;50.796;6.772;2024-01-07T11:00:05;15.53;;;13.87;;
1837;SDS011;918;50.796;6.772;2024-01-07T11:02:34;15.67;;;14.10;;
1837;SDS011;918;50.796;6.772;2024-01-07T11:07:50;17.03;;;15.50;;
1837;SDS011;918;50.796;6.772;2024-01-07T11:10:22;14.73;;;13.30;;
1837;SDS011;918;50.796;6.772;2024-01-07T11:12:54;13.67;;;12.27;;
1837;SDS011;918;50.796;6.772;2024-01-07T11:18:18;12.90;;;11.70;;
1837;SDS011;918;50.796;6.772;2024-01-07T11:20:45;14.90;;;13.60;;
1837;SDS011;918;50.796;6.772;2024-01-07T11:25:51;14.00;;;12.70;;
1837;SDS011;918;50.796;6.772;2024-01-07T11:28:16;13.73;;;12.37;;
1837;SDS011;918;50.796;6.772;2024-01-07T11:30:41;16.23;;;14.53;;
1837;SDS011;918;50.796;6.772;2024-01-07T11:33:07;15.73;;;13.57;;
1837;SDS011;918;50.796;6.772;2024-01-07T11:35:55;15.50;;;13.93;;
1837;SDS011;918;50.796;6.772;2024-01-07T11:38:22;15.40;;;13.83;;
1837;SDS011;918;50.796;6.772;2024-01-07T11:40:47;17.60;;;15.77;;
1837;SDS011;918;50.796;6.772;2024-01-07T11:43:14;16.00;;;14.27;;
1837;SDS011;918;50.796;6.772;2024-01-07T11:45:39;17.63;;;15.77;;
1837;SDS011;918;50.796;6.772;2024-01-07T11:48:05;17.83;;;14.93;;
1837;SDS011;918;50.796;6.772;2024-01-07T11:50:30;18.77;;;17.00;;
1837;SDS011;918;50.796;6.772;2024-01-07T11:52:56;20.20;;;15.50;;
1837;SDS011;918;50.796;6.772;2024-01-07T11:55:21;17.37;;;14.47;;
1837;SDS011;918;50.796;6.772;2024-01-07T11:57:47;17.50;;;15.13;;
1837;SDS011;918;50.796;6.772;2024-01-07T12:00:12;17.33;;;15.40;;
1837;SDS011;918;50.796;6.772;2024-01-07T12:02:38;17.57;;;15.93;;
1837;SDS011;918;50.796;6.772;2024-01-07T12:05:03;17.10;;;15.27;;
1837;SDS011;918;50.796;6.772;2024-01-07T12:07:29;18.23;;;16.43;;
1837;SDS011;918;50.796;6.772;2024-01-07T12:09:55;16.73;;;14.77;;
1837;SDS011;918;50.796;6.772;2024-01-07T12:12:21;17.63;;;15.80;;
1837;SDS011;918;50.796;6.772;2024-01-07T12:14:46;19.30;;;17.30;;
1837;SDS011;918;50.796;6.772;2024-01-07T12:17:11;19.70;;;17.00;;
1837;SDS011;918;50.796;6.772;2024-01-07T12:19:37;20.23;;;17.80;;
1837;SDS011;918;50.796;6.772;2024-01-07T12:22:03;22.07;;;18.13;;
1837;SDS011;918;50.796;6.772;2024-01-07T12:24:28;20.63;;;17.97;;
1837;SDS011;918;50.796;6.772;2024-01-07T12:26:53;18.73;;;16.50;;
1837;SDS011;918;50.796;6.772;2024-01-07T12:29:19;18.80;;;16.80;;
1837;SDS011;918;50.796;6.772;2024-01-07T12:31:46;19.40;;;17.30;;
1837;SDS011;918;50.796;6.772;2024-01-07T12:34:16;20.47;;;18.10;;
1837;SDS011;918;50.796;6.772;2024-01-07T12:36:42;19.03;;;16.97;;
1837;SDS011;918;50.796;6.772;2024-01-07T12:39:08;17.07;;;15.37;;
1837;SDS011;918;50.796;6.772;2024-01-07T12:41:33;18.70;;;16.70;;
1837;SDS011;918;50.796;6.772;2024-01-07T12:43:59;16.37;;;14.70;;
1837;SDS011;918;50.796;6.772;2024-01-07T12:46:24;16.77;;;14.93;;
1837;SDS011;918;50.796;6.772;2024-01-07T12:48:49;18.13;;;15.73;;
1837;SDS011;918;50.796;6.772;2024-01-07T12:51:14;16.90;;;15.20;;
1837;SDS011;918;50.796;6.772;2024-01-07T12:53:40;16.17;;;14.63;;
1837;SDS011;918;50.796;6.772;2024-01-07T12:56:05;19.57;;;15.17;;
1837;SDS011;918;50.796;6.772;2024-01-07T12:58:30;17.23;;;13.77;;
1837;SDS011;918;50.796;6.772;2024-01-07T13:00:56;16.80;;;14.20;;
1837;SDS011;918;50.796;6.772;2024-01-07T13:03:21;15.97;;;14.43;;
1837;SDS011;918;50.796;6.772;2024-01-07T13:05:47;16.17;;;13.60;;
1837;SDS011;918;50.796;6.772;2024-01-07T13:08:15;17.40;;;15.60;;
1837;SDS011;918;50.796;6.772;2024-01-07T13:10:40;15.00;;;13.37;;
1837;SDS011;918;50.796;6.772;2024-01-07T13:13:06;15.63;;;14.03;;
1837;SDS011;918;50.796;6.772;2024-01-07T13:15:32;14.60;;;13.20;;
1837;SDS011;918;50.796;6.772;2024-01-07T13:17:57;16.33;;;14.50;;
1837;SDS011;918;50.796;6.772;2024-01-07T13:20:22;15.40;;;13.80;;
1837;SDS011;918;50.796;6.772;2024-01-07T13:22:48;15.30;;;13.80;;
1837;SDS011;918;50.796;6.772;2024-01-07T13:25:14;16.37;;;14.30;;
1837;SDS011;918;50.796;6.772;2024-01-07T13:27:39;14.77;;;13.27;;
1837;SDS011;918;50.796;6.772;2024-01-07T13:30:05;14.37;;;12.97;;
1837;SDS011;918;50.796;6.772;2024-01-07T13:32:31;13.90;;;12.67;;
1837;SDS011;918;50.796;6.772;2024-01-07T13:35:01;15.53;;;12.80;;
1837;SDS011;918;50.796;6.772;2024-01-07T13:37:26;18.67;;;14.07;;
1837;SDS011;918;50.796;6.772;2024-01-07T13:39:52;14.57;;;13.17;;
1837;SDS011;918;50.796;6.772;2024-01-07T13:42:17;14.60;;;13.23;;
1837;SDS011;918;50.796;6.772;2024-01-07T13:44:42;11.63;;;10.43;;
1837;SDS011;918;50.796;6.772;2024-01-07T13:47:11;12.13;;;11.00;;
1837;SDS011;918;50.796;6.772;2024-01-07T13:49:42;11.47;;;10.47;;
1837;SDS011;918;50.796;6.772;2024-01-07T13:52:07;12.23;;;10.80;;
1837;SDS011;918;50.796;6.772;2024-01-07T13:54:32;12.20;;;11.10;;
1837;SDS011;918;50.796;6.772;2024-01-07T13:56:58;13.27;;;11.40;;
1837;SDS011;918;50.796;6.772;2024-01-07T13:59:24;12.00;;;10.87;;
1837;SDS011;918;50.796;6.772;2024-01-07T14:01:50;11.17;;;10.23;;
1837;SDS011;918;50.796;6.772;2024-01-07T14:04:15;12.50;;;10.97;;
1837;SDS011;918;50.796;6.772;2024-01-07T14:06:40;10.63;;;9.73;;
1837;SDS011;918;50.796;6.772;2024-01-07T14:09:06;10.30;;;9.30;;
1837;SDS011;918;50.796;6.772;2024-01-07T14:11:33;10.97;;;9.87;;
1837;SDS011;918;50.796;6.772;2024-01-07T14:13:59;10.90;;;9.63;;
1837;SDS011;918;50.796;6.772;2024-01-07T14:16:24;11.50;;;10.33;;
1837;SDS011;918;50.796;6.772;2024-01-07T14:18:49;9.87;;;8.87;;
1837;SDS011;918;50.796;6.772;2024-01-07T14:21:15;9.80;;;8.90;;
1837;SDS011;918;50.796;6.772;2024-01-07T14:23:40;11.00;;;9.87;;
1837;SDS011;918;50.796;6.772;2024-01-07T14:26:05;13.33;;;10.80;;
1837;SDS011;918;50.796;6.772;2024-01-07T14:28:30;10.20;;;9.33;;
1837;SDS011;918;50.796;6.772;2024-01-07T14:30:56;10.13;;;9.23;;
1837;SDS011;918;50.796;6.772;2024-01-07T14:33:22;9.93;;;9.03;;
1837;SDS011;918;50.796;6.772;2024-01-07T14:35:48;9.60;;;8.70;;
1837;SDS011;918;50.796;6.772;2024-01-07T14:38:14;9.70;;;8.80;;
1837;SDS011;918;50.796;6.772;2024-01-07T14:40:39;10.20;;;9.40;;
1837;SDS011;918;50.796;6.772;2024-01-07T14:43:06;10.50;;;9.60;;
1837;SDS011;918;50.796;6.772;2024-01-07T14:45:31;10.40;;;9.50;;
1837;SDS011;918;50.796;6.772;2024-01-07T14:47:56;10.63;;;9.77;;
1837;SDS011;918;50.796;6.772;2024-01-07T14:50:22;10.70;;;9.60;;
1837;SDS011;918;50.796;6.772;2024-01-07T14:52:47;10.50;;;9.60;;
1837;SDS011;918;50.796;6.772;2024-01-07T14:55:13;11.30;;;10.30;;
1837;SDS011;918;50.796;6.772;2024-01-07T14:57:39;10.37;;;9.37;;
1837;SDS011;918;50.796;6.772;2024-01-07T15:00:05;11.20;;;10.20;;
1837;SDS011;918;50.796;6.772;2024-01-07T15:02:30;11.57;;;10.43;;
1837;SDS011;918;50.796;6.772;2024-01-07T15:04:56;10.23;;;9.23;;
1837;SDS011;918;50.796;6.772;2024-01-07T15:07:22;10.40;;;9.50;;